Time;durP1;ratioP1;P1;durP2;ratioP2;P2;SDS_P1;SDS_P2;PMS_P1;PMS_P2;Temp;Humidity;BMP_temperature;BMP_pressure;BME280_temperature;BME280_humidity;BME280_pressure;Samples;Min_cycle;Max_cycle;Signal;HPM_P1;HPM_P2
2022/04/04 00:01:06;;;;;;;8.80;5.82;;;4.20;58.90;;;;;;5137010;27;20064;-64
2022/04/04 00:03:32;;;;;;;9.60;6.13;;;4.20;59.00;;;;;;5136342;27;20110;-65
2022/04/04 00:05:58;;;;;;;11.25;6.13;;;4.20;59.00;;;;;;5137002;27;20031;-64
2022/04/04 00:08:23;;;;;;;9.70;5.93;;;4.20;59.10;;;;;;5136955;27;20490;-65
2022/04/04 00:10:49;;;;;;;10.77;6.20;;;4.20;59.10;;;;;;5136677;27;20023;-64
2022/04/04 00:13:15;;;;;;;8.45;6.38;;;4.10;59.50;;;;;;5137098;27;20027;-64
2022/04/04 00:15:41;;;;;;;8.27;5.85;;;4.10;58.90;;;;;;5136487;27;20034;-66
2022/04/04 00:18:11;;;;;;;7.75;5.18;;;4.10;58.80;;;;;;5109724;28;20045;-65
2022/04/04 00:20:41;;;;;;;7.97;4.95;;;4.10;58.60;;;;;;5097533;28;20023;-65
2022/04/04 00:23:12;;;;;;;7.78;5.22;;;4.10;58.50;;;;;;5097603;28;20046;-64
2022/04/04 00:25:39;;;;;;;7.65;5.35;;;4.10;58.40;;;;;;5097598;28;20552;-64
2022/04/04 00:28:05;;;;;;;6.82;4.22;;;4.10;58.40;;;;;;5117065;27;20029;-65
2022/04/04 00:30:31;;;;;;;7.32;5.22;;;4.00;58.20;;;;;;5136437;27;20117;-65
2022/04/04 00:32:56;;;;;;;10.15;6.38;;;4.00;58.30;;;;;;5135334;27;20019;-64
2022/04/04 00:35:22;;;;;;;9.55;6.57;;;4.00;58.50;;;;;;5136129;27;20029;-64
2022/04/04 00:37:48;;;;;;;11.93;6.22;;;3.90;58.80;;;;;;5136185;27;20454;-66
2022/04/04 00:40:14;;;;;;;8.88;6.07;;;3.90;59.00;;;;;;5117609;27;20053;-64
2022/04/04 00:42:40;;;;;;;10.75;6.32;;;3.90;59.10;;;;;;5135846;27;20394;-64
2022/04/04 00:45:07;;;;;;;8.75;6.18;;;3.90;59.20;;;;;;5117979;27;20026;-65
2022/04/04 00:47:33;;;;;;;10.80;6.75;;;3.90;59.40;;;;;;5136284;27;20034;-64
2022/04/04 00:49:58;;;;;;;9.80;6.43;;;3.90;59.50;;;;;;5130349;27;20403;-64
2022/04/04 00:52:25;;;;;;;9.95;6.75;;;3.90;59.50;;;;;;5115457;28;20465;-64
2022/04/04 00:54:51;;;;;;;9.20;5.93;;;3.90;59.60;;;;;;5115669;28;20024;-64
2022/04/04 00:57:17;;;;;;;8.82;5.70;;;3.90;59.50;;;;;;5115543;28;20494;-65
2022/04/04 00:59:44;;;;;;;10.77;6.60;;;4.00;59.50;;;;;;5124050;27;20034;-64
2022/04/04 01:02:11;;;;;;;9.63;6.13;;;3.90;59.30;;;;;;5136042;27;20339;-65
2022/04/04 01:04:37;;;;;;;10.43;6.53;;;3.90;59.20;;;;;;5113425;28;20370;-65
2022/04/04 01:07:03;;;;;;;8.93;5.65;;;3.90;59.20;;;;;;5096866;28;20118;-65
2022/04/04 01:09:31;;;;;;;8.15;5.43;;;3.90;59.00;;;;;;5115236;28;20028;-65
2022/04/04 01:12:13;;;;;;;8.00;5.70;;;3.90;59.00;;;;;;5114881;28;20101;-65
2022/04/04 01:14:48;;;;;;;9.57;5.45;;;3.90;59.10;;;;;;5106400;27;20019;-65
2022/04/04 01:17:18;;;;;;;8.45;5.22;;;3.90;59.10;;;;;;5135110;27;20027;-64
2022/04/04 01:19:44;;;;;;;9.45;6.57;;;3.90;59.20;;;;;;5117075;27;20030;-64
2022/04/04 01:22:13;;;;;;;10.85;6.63;;;3.90;59.40;;;;;;5116923;27;20113;-64
2022/04/04 01:24:39;;;;;;;12.07;7.07;;;3.90;59.60;;;;;;5135415;27;20025;-64
2022/04/04 01:27:10;;;;;;;11.68;7.10;;;4.00;59.80;;;;;;5134422;27;20475;-64
2022/04/04 01:29:36;;;;;;;9.88;6.18;;;4.00;60.00;;;;;;5116951;27;20137;-64
2022/04/04 01:32:04;;;;;;;9.10;5.90;;;4.00;59.80;;;;;;5116869;27;20057;-65
2022/04/04 01:34:30;;;;;;;14.57;7.75;;;4.10;59.80;;;;;;5116140;27;20031;-64
2022/04/04 01:36:56;;;;;;;11.05;7.00;;;4.10;59.90;;;;;;5116242;27;20031;-64
2022/04/04 01:39:22;;;;;;;7.85;6.15;;;4.10;60.00;;;;;;5134853;27;20555;-65
2022/04/04 01:41:48;;;;;;;10.45;6.90;;;4.10;60.00;;;;;;5116516;27;20458;-64
2022/04/04 01:44:13;;;;;;;14.73;7.40;;;4.10;59.90;;;;;;5116599;27;20023;-64
2022/04/04 01:46:39;;;;;;;14.70;7.57;;;4.10;59.80;;;;;;5116617;27;20023;-64
2022/04/04 01:49:06;;;;;;;12.75;7.18;;;4.00;59.90;;;;;;5116499;27;20178;-64
2022/04/04 01:51:34;;;;;;;9.13;6.07;;;4.00;60.10;;;;;;5115965;27;20027;-65
2022/04/04 01:54:00;;;;;;;11.25;7.20;;;4.00;60.00;;;;;;5115910;27;20114;-65
2022/04/04 01:56:27;;;;;;;10.25;7.05;;;4.00;59.90;;;;;;5134784;27;20019;-65
2022/04/04 01:58:53;;;;;;;9.57;7.20;;;3.90;60.00;;;;;;5116379;27;20019;-65
2022/04/04 02:01:22;;;;;;;11.20;7.07;;;3.90;60.00;;;;;;5134530;27;20032;-64
2022/04/04 02:03:50;;;;;;;13.55;7.57;;;3.90;60.10;;;;;;5134032;27;20034;-64
2022/04/04 02:06:18;;;;;;;9.88;5.85;;;3.90;60.30;;;;;;5134724;27;20580;-64
2022/04/04 02:08:45;;;;;;;11.38;6.32;;;3.90;60.20;;;;;;5133924;27;20023;-65
2022/04/04 02:11:12;;;;;;;11.18;7.35;;;3.90;60.00;;;;;;5134358;27;20515;-64
2022/04/04 02:13:38;;;;;;;10.98;7.30;;;3.80;59.90;;;;;;5116096;27;20049;-64
2022/04/04 02:16:04;;;;;;;9.55;6.57;;;3.80;59.90;;;;;;5134340;27;20462;-64
2022/04/04 02:18:32;;;;;;;11.85;6.97;;;3.70;59.70;;;;;;5134449;27;20067;-64
2022/04/04 02:20:58;;;;;;;9.57;6.60;;;3.70;59.70;;;;;;5134739;27;20026;-65
2022/04/04 02:23:25;;;;;;;11.25;7.40;;;3.70;59.50;;;;;;5134117;27;20042;-64
2022/04/04 02:25:52;;;;;;;9.80;6.80;;;3.60;59.40;;;;;;5134130;27;20462;-63
2022/04/04 02:28:19;;;;;;;10.43;7.30;;;3.60;59.40;;;;;;5113529;27;20027;-64
2022/04/04 02:30:46;;;;;;;8.50;6.05;;;3.50;59.50;;;;;;5134320;27;20082;-64
2022/04/04 02:33:12;;;;;;;9.85;6.55;;;3.50;59.60;;;;;;5131121;27;20420;-65
2022/04/04 02:35:39;;;;;;;10.13;6.80;;;3.50;59.60;;;;;;5115827;27;20019;-64
2022/04/04 02:38:05;;;;;;;9.60;6.13;;;3.40;59.50;;;;;;5127127;27;20363;-64
2022/04/04 02:40:31;;;;;;;10.68;6.50;;;3.40;59.50;;;;;;5108057;28;20051;-65
2022/04/04 02:42:56;;;;;;;8.90;6.25;;;3.30;59.40;;;;;;5130211;28;20034;-64
2022/04/04 02:45:22;;;;;;;8.85;6.28;;;3.30;59.50;;;;;;5108044;28;20055;-65
2022/04/04 02:47:48;;;;;;;6.88;5.40;;;3.30;59.50;;;;;;5122867;28;20382;-64
2022/04/04 02:50:15;;;;;;;12.40;6.53;;;3.20;59.40;;;;;;5125024;28;20028;-64
2022/04/04 02:52:41;;;;;;;9.82;6.55;;;3.20;59.50;;;;;;5106330;28;20035;-65
2022/04/04 02:57:52;;;;;;;11.32;6.00;;;3.20;59.60;;;;;;5132842;28;20046;-64
2022/04/04 03:00:19;;;;;;;9.43;6.40;;;3.10;59.50;;;;;;5114603;28;20023;-65
2022/04/04 03:02:46;;;;;;;11.38;7.10;;;3.10;59.50;;;;;;5114390;28;20023;-64
2022/04/04 03:05:12;;;;;;;10.80;6.53;;;3.10;59.60;;;;;;5134397;27;20030;-65
2022/04/04 03:07:37;;;;;;;13.82;7.82;;;3.00;59.60;;;;;;5136730;28;20038;-65
2022/04/04 03:10:04;;;;;;;9.43;6.25;;;3.00;59.70;;;;;;5114584;28;20028;-65
2022/04/04 03:12:30;;;;;;;9.75;6.88;;;3.00;59.70;;;;;;5115543;28;20035;-64
2022/04/04 03:14:56;;;;;;;8.68;6.35;;;3.00;59.70;;;;;;5124232;28;20394;-64
2022/04/04 03:17:21;;;;;;;9.85;6.32;;;3.00;59.80;;;;;;5118014;28;20513;-63
2022/04/04 03:19:47;;;;;;;10.82;7.10;;;2.90;59.70;;;;;;5118086;28;20054;-65
2022/04/04 03:22:14;;;;;;;10.63;7.03;;;2.90;59.70;;;;;;5117987;28;20390;-65
2022/04/04 03:24:39;;;;;;;13.20;7.70;;;2.90;59.80;;;;;;5136102;28;20030;-65
2022/04/04 03:27:06;;;;;;;8.68;5.72;;;2.90;59.90;;;;;;5135971;28;20043;-64
2022/04/04 03:29:32;;;;;;;14.85;6.07;;;2.90;59.90;;;;;;5133912;28;20042;-64
2022/04/04 03:31:58;;;;;;;10.93;6.25;;;2.90;59.90;;;;;;5105399;28;20031;-64
2022/04/04 03:34:25;;;;;;;11.80;7.38;;;2.80;59.80;;;;;;5114957;28;20023;-64
2022/04/04 03:36:51;;;;;;;14.40;9.50;;;2.80;60.30;;;;;;5127935;28;20039;-65
2022/04/04 03:39:17;;;;;;;13.68;7.70;;;2.80;60.30;;;;;;5065335;28;1392009;-64
2022/04/04 03:41:45;;;;;;;9.50;6.75;;;2.80;60.60;;;;;;5131671;27;20551;-66
2022/04/04 03:44:12;;;;;;;9.80;6.45;;;2.80;60.60;;;;;;5103199;28;20038;-65
2022/04/04 03:46:38;;;;;;;13.05;6.75;;;2.80;60.40;;;;;;5107622;28;20030;-64
2022/04/04 03:49:05;;;;;;;10.27;7.32;;;2.80;60.40;;;;;;5108034;28;20069;-64
2022/04/04 03:51:31;;;;;;;14.98;7.90;;;2.80;60.30;;;;;;5112703;27;20032;-64
2022/04/04 03:53:58;;;;;;;18.95;9.25;;;2.80;60.40;;;;;;5131211;27;20090;-64
2022/04/04 03:56:24;;;;;;;13.10;8.30;;;2.70;60.40;;;;;;5116572;27;20024;-64
2022/04/04 03:58:52;;;;;;;15.43;8.60;;;2.70;60.50;;;;;;5135215;27;20050;-64
2022/04/04 04:01:18;;;;;;;12.27;7.45;;;2.70;60.60;;;;;;5115347;27;20032;-64
2022/04/04 04:03:44;;;;;;;26.85;8.60;;;2.70;60.60;;;;;;5123947;27;20038;-64
2022/04/04 04:06:13;;;;;;;17.45;8.93;;;2.70;60.60;;;;;;5096723;28;20032;-65
2022/04/04 04:08:45;;;;;;;19.60;9.43;;;2.70;60.80;;;;;;5098102;28;20585;-64
2022/04/04 04:11:13;;;;;;;13.23;9.05;;;2.60;61.40;;;;;;5116438;28;20038;-65
2022/04/04 04:13:44;;;;;;;11.90;8.50;;;2.70;61.80;;;;;;5116301;28;20019;-64
2022/04/04 04:16:13;;;;;;;17.25;8.43;;;2.70;61.90;;;;;;5116054;28;20024;-64
2022/04/04 04:18:39;;;;;;;13.30;8.10;;;2.70;61.70;;;;;;5097960;28;20387;-64
2022/04/04 04:21:07;;;;;;;14.63;9.68;;;2.70;61.70;;;;;;5097931;28;20111;-64
2022/04/04 04:23:34;;;;;;;14.35;9.43;;;2.70;62.00;;;;;;5097913;28;20020;-64
2022/04/04 04:26:00;;;;;;;18.60;10.20;;;2.70;62.30;;;;;;5127080;27;20050;-65
2022/04/04 04:28:26;;;;;;;13.05;8.75;;;2.70;62.40;;;;;;5117476;27;20125;-65
2022/04/04 04:30:52;;;;;;;17.15;8.68;;;2.70;62.50;;;;;;5118107;27;20019;-68
2022/04/04 04:33:18;;;;;;;21.20;9.75;;;2.70;62.60;;;;;;5136338;27;20034;-64
2022/04/04 04:35:43;;;;;;;15.68;8.95;;;2.70;62.80;;;;;;5136365;27;20023;-63
2022/04/04 04:38:09;;;;;;;13.00;8.60;;;2.70;62.80;;;;;;5136517;27;20075;-63
2022/04/04 04:40:36;;;;;;;14.63;9.50;;;2.70;62.80;;;;;;5117632;27;20051;-65
2022/04/04 04:43:02;;;;;;;19.05;10.07;;;2.80;62.70;;;;;;5118021;27;20490;-64
2022/04/04 04:45:28;;;;;;;17.38;10.23;;;2.80;62.60;;;;;;5136449;27;20027;-63
2022/04/04 04:47:54;;;;;;;13.90;9.27;;;2.80;62.50;;;;;;5136086;27;20455;-65
2022/04/04 04:50:22;;;;;;;15.15;8.95;;;2.80;62.40;;;;;;5135348;27;20019;-65
2022/04/04 04:52:49;;;;;;;11.73;8.27;;;2.70;62.20;;;;;;5117234;27;20023;-66
2022/04/04 04:55:16;;;;;;;20.15;8.57;;;2.70;62.00;;;;;;5136189;27;20030;-65
2022/04/04 04:57:42;;;;;;;13.02;8.93;;;2.70;61.80;;;;;;5117642;27;20432;-64
2022/04/04 05:00:11;;;;;;;14.80;9.35;;;2.70;61.70;;;;;;5117656;27;20023;-65
2022/04/04 05:02:37;;;;;;;14.55;8.85;;;2.70;61.70;;;;;;5111004;28;20058;-65
2022/04/04 05:05:07;;;;;;;12.50;8.50;;;2.70;61.70;;;;;;5107967;28;20059;-65
2022/04/04 05:07:33;;;;;;;15.52;9.35;;;2.70;61.70;;;;;;5115633;27;20024;-65
2022/04/04 05:09:59;;;;;;;13.05;9.00;;;2.70;61.70;;;;;;5135854;27;20035;-65
2022/04/04 05:12:25;;;;;;;14.90;8.77;;;2.70;61.70;;;;;;5117306;27;20050;-65
2022/04/04 05:14:51;;;;;;;14.82;9.07;;;2.70;61.70;;;;;;5135690;27;20482;-65
2022/04/04 05:17:17;;;;;;;18.15;9.73;;;2.70;61.70;;;;;;5135545;27;20084;-65
2022/04/04 05:19:43;;;;;;;19.52;10.77;;;2.70;61.80;;;;;;5135379;27;20019;-65
2022/04/04 05:22:09;;;;;;;35.17;16.52;;;2.70;61.80;;;;;;5135113;27;20415;-65
2022/04/04 05:24:35;;;;;;;34.30;18.95;;;2.80;61.80;;;;;;5117152;27;20107;-65
2022/04/04 05:27:02;;;;;;;38.88;18.15;;;2.80;61.80;;;;;;5133593;27;20031;-65
2022/04/04 05:29:28;;;;;;;20.70;12.23;;;2.80;61.80;;;;;;5124937;27;20019;-65
2022/04/04 05:31:55;;;;;;;16.20;10.23;;;2.90;61.80;;;;;;5135165;27;20027;-65
2022/04/04 05:34:22;;;;;;;16.83;9.88;;;2.90;61.70;;;;;;5134364;27;20419;-66
2022/04/04 05:36:49;;;;;;;14.80;9.65;;;3.00;61.60;;;;;;5116871;27;20410;-65
2022/04/04 05:39:15;;;;;;;12.75;8.02;;;3.00;61.50;;;;;;5111144;28;20043;-65
2022/04/04 05:41:41;;;;;;;13.10;9.23;;;3.10;61.50;;;;;;5096370;28;20463;-65
2022/04/04 05:44:07;;;;;;;14.63;8.88;;;3.10;61.40;;;;;;5114674;28;20028;-65
2022/04/04 05:46:33;;;;;;;16.77;10.25;;;3.20;61.30;;;;;;5114673;28;20055;-66
2022/04/04 05:49:00;;;;;;;16.05;9.02;;;3.30;61.30;;;;;;5114579;28;20034;-65
2022/04/04 05:51:29;;;;;;;17.83;9.05;;;3.30;61.20;;;;;;5093173;28;20039;-65
2022/04/04 05:53:55;;;;;;;15.52;8.98;;;3.40;61.20;;;;;;5114174;28;20023;-65
2022/04/04 05:56:21;;;;;;;13.32;8.63;;;3.50;61.20;;;;;;5114357;28;20028;-66
2022/04/04 05:58:50;;;;;;;13.75;8.80;;;3.50;61.00;;;;;;5113955;28;20040;-65
2022/04/04 06:01:16;;;;;;;17.15;8.80;;;3.60;61.00;;;;;;5112472;28;20073;-66
2022/04/04 06:03:42;;;;;;;16.15;12.05;;;3.70;61.00;;;;;;5108294;28;20047;-66
2022/04/04 06:06:08;;;;;;;23.80;11.20;;;3.70;61.00;;;;;;5114408;28;20023;-65
2022/04/04 06:08:34;;;;;;;13.00;8.48;;;3.80;61.00;;;;;;5114578;28;20088;-66
2022/04/04 06:11:00;;;;;;;15.65;9.93;;;3.90;61.00;;;;;;5113331;28;20061;-65
2022/04/04 06:13:26;;;;;;;13.75;9.55;;;4.00;60.90;;;;;;5113386;27;20026;-65
2022/04/04 06:15:52;;;;;;;15.07;9.95;;;4.00;60.80;;;;;;5134384;27;20091;-65
2022/04/04 06:18:19;;;;;;;15.13;9.27;;;4.10;60.70;;;;;;5134693;27;20106;-65
2022/04/04 06:20:44;;;;;;;13.80;9.70;;;4.20;60.70;;;;;;5105337;28;20539;-65
2022/04/04 06:23:14;;;;;;;11.63;7.93;;;4.20;60.70;;;;;;5107879;28;20063;-65
2022/04/04 06:25:41;;;;;;;14.48;9.15;;;4.30;60.60;;;;;;5095580;28;20023;-65
2022/04/04 06:28:08;;;;;;;15.43;9.02;;;4.40;60.50;;;;;;5113904;28;20061;-65
2022/04/04 06:30:34;;;;;;;14.60;9.15;;;4.50;60.30;;;;;;5113613;28;20051;-65
2022/04/04 06:33:04;;;;;;;18.60;10.65;;;4.50;60.10;;;;;;5092301;28;20059;-65
2022/04/04 06:35:30;;;;;;;14.30;9.90;;;4.60;60.00;;;;;;5095540;28;20042;-66
2022/04/04 06:37:55;;;;;;;18.50;10.32;;;4.60;59.90;;;;;;5113833;28;20040;-65
2022/04/04 06:40:22;;;;;;;14.15;9.45;;;4.70;59.70;;;;;;5113338;28;20429;-65
2022/04/04 06:42:49;;;;;;;14.90;9.48;;;4.80;59.50;;;;;;5107783;28;20038;-66
2022/04/04 06:45:17;;;;;;;16.75;9.38;;;4.90;59.40;;;;;;5113495;28;20111;-65
2022/04/04 06:47:43;;;;;;;12.02;8.48;;;4.90;59.30;;;;;;5113567;28;20031;-66
2022/04/04 06:50:10;;;;;;;17.05;10.27;;;5.00;59.20;;;;;;5095450;28;20027;-65
2022/04/04 06:52:37;;;;;;;13.18;9.30;;;5.10;59.40;;;;;;5095462;28;20383;-66
2022/04/04 06:55:05;;;;;;;17.25;10.27;;;5.10;58.40;;;;;;5113726;28;20027;-65
2022/04/04 06:57:31;;;;;;;14.65;9.25;;;5.20;58.40;;;;;;5095394;28;20395;-65
2022/04/04 06:59:56;;;;;;;13.65;8.82;;;5.30;58.20;;;;;;5112809;28;20032;-65
2022/04/04 07:02:22;;;;;;;14.35;9.80;;;5.30;58.00;;;;;;5094613;28;20038;-65
2022/04/04 07:04:49;;;;;;;13.38;9.30;;;5.40;57.90;;;;;;5094706;28;20040;-66
2022/04/04 07:07:17;;;;;;;15.50;10.20;;;5.50;57.80;;;;;;5113339;28;20039;-65
2022/04/04 07:09:44;;;;;;;17.70;9.55;;;5.50;57.50;;;;;;5084414;28;20028;-66
2022/04/04 07:12:10;;;;;;;12.63;8.73;;;5.60;57.20;;;;;;5113109;28;20102;-65
2022/04/04 07:14:36;;;;;;;12.93;9.57;;;5.70;56.90;;;;;;5113101;28;20103;-65
2022/04/04 07:17:02;;;;;;;12.15;8.95;;;5.70;56.60;;;;;;5113109;28;20050;-66
2022/04/04 07:19:33;;;;;;;15.15;9.18;;;5.70;56.30;;;;;;5113460;28;20030;-67
2022/04/04 07:22:02;;;;;;;17.83;9.52;;;5.80;55.90;;;;;;5113072;28;20023;-66
2022/04/04 07:24:28;;;;;;;14.93;9.00;;;5.80;55.70;;;;;;5113485;28;20028;-65
2022/04/04 07:26:55;;;;;;;14.98;9.70;;;5.90;55.70;;;;;;5095196;28;20089;-66
2022/04/04 07:29:20;;;;;;;15.88;9.45;;;5.90;55.50;;;;;;5095257;28;20077;-66
2022/04/04 07:31:46;;;;;;;14.40;9.43;;;6.00;55.20;;;;;;5105201;28;20475;-65
2022/04/04 07:34:12;;;;;;;14.73;9.38;;;6.00;55.40;;;;;;5112214;28;20139;-65
2022/04/04 07:36:40;;;;;;;14.07;9.25;;;6.10;55.20;;;;;;5090770;28;20111;-65
2022/04/04 07:39:07;;;;;;;15.00;9.57;;;6.20;55.50;;;;;;5085087;28;20048;-66
2022/04/04 07:41:34;;;;;;;12.25;9.10;;;6.20;54.80;;;;;;5093378;28;20028;-67
2022/04/04 07:44:00;;;;;;;13.52;8.70;;;6.30;54.50;;;;;;5112922;28;20027;-65
2022/04/04 07:46:26;;;;;;;21.77;9.63;;;6.30;54.50;;;;;;5112968;28;20110;-65
2022/04/04 07:48:55;;;;;;;14.68;9.30;;;6.40;54.40;;;;;;5120193;28;20034;-67
2022/04/04 07:51:24;;;;;;;14.30;9.68;;;6.50;54.20;;;;;;5135609;27;20168;-66
2022/04/04 07:53:50;;;;;;;12.68;8.70;;;6.50;53.80;;;;;;5137240;27;20031;-66
2022/04/04 07:56:16;;;;;;;14.75;10.13;;;6.50;53.80;;;;;;5137475;27;20027;-66
2022/04/04 07:58:42;;;;;;;13.45;9.50;;;6.60;53.60;;;;;;5137364;27;20109;-66
2022/04/04 08:01:08;;;;;;;17.30;9.27;;;6.60;53.40;;;;;;5118985;27;20048;-65
2022/04/04 08:03:34;;;;;;;11.77;9.00;;;6.70;53.40;;;;;;5118624;27;20097;-66
2022/04/04 08:06:01;;;;;;;13.38;8.32;;;6.70;53.40;;;;;;5120304;27;20065;-66
2022/04/04 08:08:27;;;;;;;12.30;8.35;;;6.80;53.50;;;;;;5117053;27;20118;-66
2022/04/04 08:10:53;;;;;;;15.30;9.32;;;6.80;53.20;;;;;;5136728;27;20027;-66
2022/04/04 08:13:19;;;;;;;13.73;9.25;;;6.90;53.30;;;;;;5137134;27;20023;-67
2022/04/04 08:15:45;;;;;;;13.63;9.05;;;7.00;53.10;;;;;;5134271;27;20366;-66
2022/04/04 08:18:11;;;;;;;11.20;8.43;;;7.00;52.80;;;;;;5117691;27;20092;-67
2022/04/04 08:20:38;;;;;;;10.38;8.07;;;7.10;52.30;;;;;;5109167;27;20028;-67
2022/04/04 08:23:04;;;;;;;14.05;9.02;;;7.10;51.70;;;;;;5113020;27;20364;-65
2022/04/04 08:25:30;;;;;;;12.98;8.80;;;7.20;51.60;;;;;;5128959;27;20019;-65
2022/04/04 08:27:56;;;;;;;21.42;8.02;;;7.20;51.60;;;;;;5111458;27;20116;-65
2022/04/04 08:30:21;;;;;;;12.20;7.43;;;7.30;51.30;;;;;;5123633;27;20035;-67
2022/04/04 08:32:48;;;;;;;15.52;8.23;;;7.30;51.10;;;;;;5130090;27;20024;-65
2022/04/04 08:35:15;;;;;;;10.07;7.32;;;7.40;50.90;;;;;;5128159;27;20019;-65
2022/04/04 08:37:43;;;;;;;17.90;7.38;;;7.40;50.70;;;;;;5115909;28;20039;-66
2022/04/04 08:40:12;;;;;;;8.70;6.00;;;7.50;50.70;;;;;;5108715;28;20048;-66
2022/04/04 08:42:38;;;;;;;5.00;3.80;;;7.60;50.10;;;;;;5116083;28;20026;-66
2022/04/04 08:45:06;;;;;;;7.75;4.60;;;7.60;48.30;;;;;;5111955;27;20031;-65
2022/04/04 08:47:33;;;;;;;6.55;4.70;;;7.60;47.10;;;;;;5117283;27;20501;-65
2022/04/04 08:50:00;;;;;;;16.00;5.18;;;7.70;47.60;;;;;;5110753;28;20024;-66
2022/04/04 08:52:26;;;;;;;9.60;5.43;;;7.70;46.50;;;;;;5124066;27;20027;-65
2022/04/04 08:54:53;;;;;;;8.80;4.88;;;7.70;46.20;;;;;;5110131;27;20114;-66
2022/04/04 08:57:19;;;;;;;8.52;5.05;;;7.80;46.70;;;;;;5128489;27;20038;-66
2022/04/04 08:59:45;;;;;;;10.82;5.50;;;7.80;46.20;;;;;;5121453;27;20027;-66
2022/04/04 09:02:12;;;;;;;7.18;5.00;;;7.80;45.90;;;;;;5133225;27;20027;-65
2022/04/04 09:04:39;;;;;;;8.85;5.05;;;7.90;45.70;;;;;;5120501;27;20398;-66
2022/04/04 09:07:10;;;;;;;6.75;4.30;;;7.90;45.60;;;;;;5117296;27;20031;-66
2022/04/04 09:09:42;;;;;;;8.90;5.47;;;8.00;46.00;;;;;;5135420;27;20525;-66
2022/04/04 09:12:11;;;;;;;6.68;4.10;;;8.00;45.00;;;;;;5104963;27;20470;-66
2022/04/04 09:14:46;;;;;;;6.22;4.25;;;8.10;45.00;;;;;;5125575;27;20467;-66
2022/04/04 09:17:13;;;;;;;5.22;3.30;;;8.10;44.40;;;;;;5121266;27;20081;-66
2022/04/04 09:19:40;;;;;;;6.80;4.47;;;8.20;44.30;;;;;;5115357;27;20031;-66
2022/04/04 09:22:14;;;;;;;7.03;4.35;;;8.20;43.50;;;;;;5127556;27;20030;-67
2022/04/04 09:24:49;;;;;;;;;;;8.20;43.40;;;;;;5118319;27;20023;-67
2022/04/04 09:27:23;;;;;;;8.27;4.85;;;8.30;45.30;;;;;;5117574;27;19912;-66
2022/04/04 09:30:11;;;;;;;6.28;4.47;;;8.30;42.60;;;;;;5116529;27;20032;-67
2022/04/04 09:32:42;;;;;;;7.60;4.90;;;8.30;42.30;;;;;;5129650;27;20080;-66
2022/04/04 09:35:16;;;;;;;5.40;4.10;;;8.30;42.70;;;;;;5132283;27;20027;-66
2022/04/04 09:37:50;;;;;;;6.75;4.57;;;8.30;42.80;;;;;;5116598;27;20039;-66
2022/04/04 09:40:27;;;;;;;14.25;5.25;;;8.40;43.30;;;;;;5105304;28;20052;-66
2022/04/04 09:42:53;;;;;;;7.68;4.85;;;8.40;42.80;;;;;;5106206;28;20071;-66
2022/04/04 09:45:30;;;;;;;8.43;5.25;;;8.40;42.70;;;;;;5124155;27;20580;-66
2022/04/04 09:48:06;;;;;;;9.88;5.78;;;8.50;42.60;;;;;;5123475;27;20111;-66
2022/04/04 09:50:46;;;;;;;10.73;5.53;;;8.60;43.40;;;;;;5098614;28;20467;-66
2022/04/04 09:53:22;;;;;;;8.60;6.25;;;8.60;43.80;;;;;;5111894;27;20084;-66
2022/04/04 09:55:57;;;;;;;15.63;7.00;;;8.70;44.20;;;;;;5121471;27;20023;-66
2022/04/04 09:58:28;;;;;;;8.20;7.05;;;8.80;43.50;;;;;;5114211;28;20093;-67
2022/04/04 10:00:55;;;;;;;9.48;6.82;;;8.90;44.50;;;;;;5113204;28;20026;-65
2022/04/04 10:03:23;;;;;;;12.63;7.10;;;9.00;43.60;;;;;;5116502;27;20076;-66
2022/04/04 10:05:57;;;;;;;9.68;6.82;;;9.10;43.50;;;;;;5116598;27;20024;-66
2022/04/04 10:08:27;;;;;;;10.20;6.43;;;9.20;43.30;;;;;;5134570;27;20027;-65
2022/04/04 10:10:56;;;;;;;9.13;6.53;;;9.30;42.90;;;;;;5121373;27;20031;-67
2022/04/04 10:13:26;;;;;;;9.20;6.75;;;9.40;43.10;;;;;;5111693;28;20023;-66
2022/04/04 10:15:52;;;;;;;11.10;6.70;;;9.50;43.40;;;;;;5115601;27;20023;-65
2022/04/04 10:18:19;;;;;;;9.82;6.38;;;9.70;43.50;;;;;;5134423;27;20035;-67
2022/04/04 10:20:53;;;;;;;13.63;6.90;;;10.00;44.00;;;;;;5125898;27;20032;-66
2022/04/04 10:23:20;;;;;;;9.35;7.05;;;10.10;42.70;;;;;;5114344;28;20030;-66
2022/04/04 10:25:49;;;;;;;9.25;6.50;;;10.30;41.80;;;;;;5125731;27;20023;-65
2022/04/04 10:28:44;;;;;;;8.75;6.22;;;10.50;42.00;;;;;;5128770;27;20031;-66
2022/04/04 10:31:18;;;;;;;;;;;10.70;41.60;;;;;;5111053;27;20037;-65
2022/04/04 10:33:44;;;;;;;8.13;6.43;;;10.80;43.00;;;;;;5105993;27;19910;-66
2022/04/04 10:36:20;;;;;;;10.57;6.07;;;10.80;40.60;;;;;;5116153;27;20462;-65
2022/04/04 10:38:52;;;;;;;12.88;7.35;;;10.80;39.80;;;;;;5134361;27;20386;-65
2022/04/04 10:41:21;;;;;;;7.82;5.68;;;10.80;40.10;;;;;;5132211;27;20027;-65
2022/04/04 10:43:49;;;;;;;9.38;6.03;;;10.90;40.70;;;;;;5104978;28;20036;-66
2022/04/04 10:46:17;;;;;;;7.35;5.88;;;11.00;40.00;;;;;;5111351;28;20088;-66
2022/04/04 10:48:51;;;;;;;9.93;6.10;;;11.20;40.20;;;;;;5133611;27;20102;-66
2022/04/04 10:51:31;;;;;;;8.65;6.00;;;11.40;39.50;;;;;;5110213;28;20122;-65
2022/04/04 10:54:01;;;;;;;7.55;5.78;;;11.50;38.80;;;;;;5105543;28;20036;-66
2022/04/04 10:56:35;;;;;;;6.57;5.38;;;11.60;38.70;;;;;;5099843;28;20058;-66
2022/04/04 10:59:20;;;;;;;8.93;6.45;;;11.60;39.20;;;;;;5115502;28;20034;-66
2022/04/04 11:02:02;;;;;;;10.70;7.35;;;11.60;38.20;;;;;;5121013;28;20050;-65
2022/04/04 11:04:36;;;;;;;7.53;5.65;;;11.60;38.10;;;;;;5095449;28;20038;-65
2022/04/04 11:10:05;;;;;;;8.38;6.13;;;11.70;38.00;;;;;;5134173;28;20119;-66
2022/04/04 11:13:02;;;;;;;10.20;5.30;;;11.80;37.70;;;;;;5134096;28;20037;-66
2022/04/04 11:15:48;;;;;;;6.55;5.43;;;11.90;37.80;;;;;;5133925;28;20458;-66
2022/04/04 11:18:14;;;;;;;10.00;6.55;;;12.10;38.00;;;;;;5133703;28;20054;-65
2022/04/04 11:21:06;;;;;;;8.43;5.70;;;12.20;36.70;;;;;;5133853;28;20106;-66
2022/04/04 11:23:34;;;;;;;11.98;5.80;;;12.20;37.00;;;;;;5128801;28;20080;-66
2022/04/04 11:26:03;;;;;;;10.30;5.78;;;12.30;36.70;;;;;;5134411;27;20023;-66
2022/04/04 11:28:35;;;;;;;7.57;5.95;;;12.30;36.40;;;;;;5138059;27;20031;-66
2022/04/04 11:31:11;;;;;;;9.80;5.05;;;12.30;36.10;;;;;;5138080;27;20152;-66
2022/04/04 11:33:47;;;;;;;8.20;5.60;;;12.30;36.80;;;;;;5119385;27;20031;-66
2022/04/04 11:36:27;;;;;;;7.50;5.45;;;12.40;36.60;;;;;;5137695;27;20075;-65
2022/04/04 11:38:57;;;;;;;9.63;5.30;;;12.50;36.20;;;;;;5118925;27;20466;-67
2022/04/04 11:41:24;;;;;;;7.53;5.63;;;12.60;37.10;;;;;;5138056;27;20027;-66
2022/04/04 11:43:52;;;;;;;12.68;6.78;;;12.80;36.90;;;;;;5115356;27;20031;-66
2022/04/04 11:46:19;;;;;;;9.15;7.05;;;12.90;36.40;;;;;;5112311;28;20383;-67
2022/04/04 11:48:57;;;;;;;8.38;6.57;;;13.00;36.10;;;;;;5115553;28;20051;-66
2022/04/04 11:51:30;;;;;;;12.30;6.45;;;13.10;35.90;;;;;;5117058;28;20028;-66
2022/04/04 11:54:11;;;;;;;13.27;6.47;;;13.10;35.40;;;;;;5116548;28;20056;-65
2022/04/04 11:56:41;;;;;;;10.80;6.38;;;13.10;35.40;;;;;;5116898;28;20027;-65
2022/04/04 11:59:09;;;;;;;8.88;6.32;;;13.20;35.20;;;;;;5099529;27;20056;-65
2022/04/04 12:01:35;;;;;;;7.22;6.35;;;13.20;35.10;;;;;;5130208;27;20030;-65
2022/04/04 12:04:03;;;;;;;9.43;7.13;;;13.30;35.00;;;;;;5118718;27;20491;-65
2022/04/04 12:06:30;;;;;;;10.43;6.97;;;13.30;34.20;;;;;;5100695;28;20032;-66
2022/04/04 12:09:00;;;;;;;11.00;6.95;;;13.30;34.00;;;;;;5099530;27;20130;-66
2022/04/04 12:11:30;;;;;;;8.02;6.70;;;13.20;33.70;;;;;;5131451;27;20394;-65
2022/04/04 12:13:57;;;;;;;8.85;6.57;;;13.20;33.90;;;;;;5118441;27;20027;-66
2022/04/04 12:16:32;;;;;;;8.85;7.13;;;13.10;33.60;;;;;;5137021;27;20077;-66
2022/04/04 12:19:00;;;;;;;12.07;6.95;;;13.00;33.80;;;;;;5121890;27;20382;-66
2022/04/04 12:21:26;;;;;;;9.57;6.95;;;13.00;34.40;;;;;;5116319;28;20034;-65
2022/04/04 12:26:37;;;;;;;7.00;5.55;;;13.00;34.80;;;;;;5126734;27;20141;-66
2022/04/04 12:29:10;;;;;;;9.70;6.63;;;13.10;35.10;;;;;;5109270;28;20370;-65
2022/04/04 12:31:36;;;;;;;7.47;6.45;;;13.20;34.80;;;;;;5113589;27;20080;-65
2022/04/04 12:34:10;;;;;;;8.77;6.80;;;13.20;34.90;;;;;;5118160;27;20359;-65
2022/04/04 12:36:41;;;;;;;;;;;13.20;34.20;;;;;;5111379;27;20421;-65
2022/04/04 12:39:08;;;;;;;8.23;7.00;;;13.20;35.80;;;;;;5117599;27;19915;-66
2022/04/04 12:41:50;;;;;;;10.13;6.30;;;13.20;34.10;;;;;;5118244;27;20023;-65
2022/04/04 12:44:28;;;;;;;8.43;6.25;;;13.20;34.80;;;;;;5081893;28;20111;-66
2022/04/04 12:47:11;;;;;;;11.00;6.65;;;13.30;34.70;;;;;;5086809;28;20073;-65
2022/04/04 12:49:38;;;;;;;9.18;6.28;;;13.30;34.00;;;;;;5094133;28;20031;-66
2022/04/04 12:52:06;;;;;;;8.85;6.80;;;13.40;34.80;;;;;;5118370;27;20466;-66
2022/04/04 12:54:34;;;;;;;9.20;6.47;;;13.40;34.50;;;;;;5111187;27;20058;-65
2022/04/04 12:57:06;;;;;;;6.57;5.75;;;13.40;34.50;;;;;;5129716;27;20050;-65
2022/04/04 12:59:53;;;;;;;9.15;6.70;;;13.30;33.70;;;;;;5111675;28;20050;-65
2022/04/04 13:02:19;;;;;;;9.00;6.82;;;13.30;34.00;;;;;;5131327;27;20046;-66